Time;durP1;ratioP1;P1;durP2;ratioP2;P2;SDS_P1;SDS_P2;PMS_P1;PMS_P2;Temp;Humidity;BMP_temperature;BMP_pressure;BME280_temperature;BME280_humidity;BME280_pressure;Samples;Min_cycle;Max_cycle;Signal;HPM_P1;HPM_P2
2022/10/12 04:30:04;;;;;;;;;;;21.70;99.90;;;;;;5701592;23;19933;-76
2022/10/12 04:32:30;;;;;;;;;;;21.70;99.90;;;;;;5015685;28;20013;-76
2022/10/12 04:34:57;;;;;;;;;;;21.70;99.90;;;;;;5015505;28;19926;-76
2022/10/12 04:37:26;;;;;;;;;;;21.70;99.90;;;;;;5015645;28;20012;-76
2022/10/12 04:39:52;;;;;;;;;;;21.70;99.90;;;;;;5015368;28;19973;-75
2022/10/12 04:42:19;;;;;;;;;;;21.70;99.90;;;;;;5015179;28;19967;-75
2022/10/12 04:44:46;;;;;;;;;;;21.70;99.90;;;;;;5016172;28;20016;-76
2022/10/12 04:47:14;;;;;;;;;;;21.70;99.90;;;;;;5015459;28;20016;-76
2022/10/12 04:49:40;;;;;;;;;;;21.70;99.90;;;;;;5015081;28;19984;-75
2022/10/12 04:52:07;;;;;;;;;;;21.70;99.90;;;;;;5015403;28;20016;-75
2022/10/12 04:54:34;;;;;;;;;;;21.70;99.90;;;;;;5015312;28;20011;-75
2022/10/12 04:57:00;;;;;;;;;;;21.70;99.90;;;;;;5015342;28;20024;-77
2022/10/12 04:59:27;;;;;;;;;;;21.70;99.90;;;;;;5014855;28;20020;-76
2022/10/12 05:01:54;;;;;;;;;;;21.70;99.90;;;;;;5015211;28;19968;-76
2022/10/12 05:04:22;;;;;;;;;;;21.70;99.90;;;;;;5015102;28;19965;-76
2022/10/12 05:06:49;;;;;;;;;;;21.70;99.90;;;;;;5015136;28;20024;-76
2022/10/12 05:09:16;;;;;;;;;;;21.70;99.90;;;;;;5014711;28;19925;-77
2022/10/12 05:11:42;;;;;;;;;;;21.70;99.90;;;;;;5016944;28;20020;-77
2022/10/12 05:14:09;;;;;;;;;;;21.70;99.90;;;;;;5016495;28;19985;-77
2022/10/12 05:16:36;;;;;;;;;;;21.70;99.90;;;;;;5016014;28;20020;-81
2022/10/12 05:19:02;;;;;;;;;;;21.70;99.90;;;;;;5015407;28;20024;-76
2022/10/12 05:21:30;;;;;;;;;;;21.70;99.90;;;;;;5014433;28;20448;-76
2022/10/12 05:23:57;;;;;;;;;;;21.70;99.90;;;;;;5014849;28;20012;-75
2022/10/12 05:26:24;;;;;;;;;;;21.70;99.90;;;;;;5014613;28;20012;-75
2022/10/12 05:28:51;;;;;;;;;;;21.70;99.90;;;;;;5014701;28;19972;-75
2022/10/12 05:31:17;;;;;;;;;;;21.70;99.90;;;;;;5014714;28;19968;-75
2022/10/12 05:33:44;;;;;;;;;;;21.70;99.90;;;;;;5014504;28;20020;-75
2022/10/12 05:36:11;;;;;;;;;;;21.70;99.90;;;;;;5014606;28;19930;-75
2022/10/12 05:38:39;;;;;;;;;;;21.70;99.90;;;;;;5014808;28;20020;-76
2022/10/12 05:41:05;;;;;;;;;;;21.70;99.90;;;;;;5014126;28;20027;-73
2022/10/12 05:43:32;;;;;;;;;;;21.70;99.90;;;;;;5014109;28;20036;-71
2022/10/12 05:45:59;;;;;;;;;;;21.80;99.90;;;;;;5014115;28;20452;-73
2022/10/12 05:48:26;;;;;;;;;;;21.80;99.90;;;;;;5014168;28;19932;-73
2022/10/12 05:50:53;;;;;;;;;;;21.80;99.90;;;;;;5014053;28;20277;-72
2022/10/12 05:53:20;;;;;;;;;;;21.80;99.90;;;;;;5013512;28;19932;-72
2022/10/12 05:55:53;;;;;;;;;;;21.80;99.90;;;;;;5014333;28;20008;-72
2022/10/12 05:58:20;;;;;;;;;;;21.80;99.90;;;;;;5014186;28;19926;-72
2022/10/12 06:00:46;;;;;;;;;;;21.80;99.90;;;;;;5013873;28;20357;-72
2022/10/12 06:03:13;;;;;;;;;;;21.80;99.90;;;;;;5014077;28;20359;-72
2022/10/12 06:05:40;;;;;;;;;;;21.80;99.90;;;;;;5014331;28;20345;-71
2022/10/12 06:08:07;;;;;;;;;;;21.70;99.90;;;;;;5014272;28;19932;-73
2022/10/12 06:10:34;;;;;;;;;;;21.70;99.90;;;;;;5013864;28;19931;-73
2022/10/12 06:13:02;;;;;;;;;;;21.70;99.90;;;;;;5014193;28;19926;-73
2022/10/12 06:15:29;;;;;;;;;;;21.70;99.90;;;;;;5014149;28;20016;-73
2022/10/12 06:17:55;;;;;;;;;;;21.70;99.90;;;;;;5014126;28;20016;-73
2022/10/12 06:20:22;;;;;;;;;;;21.70;99.90;;;;;;5013935;28;20020;-73
2022/10/12 06:22:49;;;;;;;;;;;21.70;99.90;;;;;;5014096;28;20017;-73
2022/10/12 06:25:15;;;;;;;;;;;21.70;99.90;;;;;;5014105;28;19973;-74
2022/10/12 06:27:44;;;;;;;;;;;21.70;99.90;;;;;;5014075;28;20016;-75
2022/10/12 06:30:12;;;;;;;;;;;21.70;99.90;;;;;;5013670;28;19925;-75
2022/10/12 06:32:39;;;;;;;;;;;21.70;99.90;;;;;;5013684;28;19984;-75
2022/10/12 06:35:06;;;;;;;;;;;21.70;99.90;;;;;;5013670;28;20442;-75
2022/10/12 06:37:33;;;;;;;;;;;21.70;99.90;;;;;;5013648;28;20443;-75
2022/10/12 06:39:59;;;;;;;;;;;21.70;99.90;;;;;;5013809;28;20008;-75
2022/10/12 06:42:26;;;;;;;;;;;21.70;99.90;;;;;;5013973;28;20016;-75
2022/10/12 06:44:53;;;;;;;;;;;21.70;99.90;;;;;;5013922;28;20016;-75
2022/10/12 06:47:21;;;;;;;;;;;21.70;99.90;;;;;;5013928;28;20016;-75
2022/10/12 06:49:47;;;;;;;;;;;21.70;99.90;;;;;;5013803;28;20012;-75
2022/10/12 06:52:14;;;;;;;;;;;21.70;99.90;;;;;;5013577;28;20016;-75
2022/10/12 06:54:41;;;;;;;;;;;21.70;99.90;;;;;;5013536;28;20397;-76
2022/10/12 06:57:07;;;;;;;;;;;21.60;99.90;;;;;;5013482;28;20296;-75
2022/10/12 06:59:34;;;;;;;;;;;21.70;99.90;;;;;;5013395;28;20357;-75
2022/10/12 07:02:01;;;;;;;;;;;21.70;99.90;;;;;;5013662;28;20011;-75
2022/10/12 07:04:29;;;;;;;;;;;21.60;99.90;;;;;;5015521;28;20031;-75
2022/10/12 07:06:55;;;;;;;;;;;21.60;99.90;;;;;;5017394;28;20023;-75
2022/10/12 07:09:22;;;;;;;;;;;21.60;99.90;;;;;;5017179;28;19929;-75
2022/10/12 07:11:49;;;;;;;;;;;21.60;99.90;;;;;;5016925;28;20432;-75
2022/10/12 07:14:15;;;;;;;;;;;21.60;99.90;;;;;;5017197;28;20016;-75
2022/10/12 07:16:43;;;;;;;;;;;21.60;99.90;;;;;;5017111;28;20020;-75
2022/10/12 07:19:09;;;;;;;;;;;21.60;99.90;;;;;;5016695;28;20032;-75
2022/10/12 07:21:37;;;;;;;;;;;21.60;99.90;;;;;;5016599;28;20012;-75
2022/10/12 07:24:04;;;;;;;;;;;21.60;99.90;;;;;;5016974;28;20015;-75
2022/10/12 07:26:31;;;;;;;;;;;21.60;99.90;;;;;;5016657;28;20369;-75
2022/10/12 07:29:00;;;;;;;;;;;21.60;99.90;;;;;;5016700;28;19925;-75
2022/10/12 07:31:27;;;;;;;;;;;21.60;99.90;;;;;;5016576;28;19926;-75
2022/10/12 07:33:54;;;;;;;;;;;21.60;99.90;;;;;;5016876;28;20038;-75
2022/10/12 07:36:20;;;;;;;;;;;21.60;99.90;;;;;;5016806;28;19925;-75
2022/10/12 07:38:49;;;;;;;;;;;21.60;99.90;;;;;;5016755;28;19973;-75
2022/10/12 07:41:15;;;;;;;;;;;21.60;99.90;;;;;;5016546;28;19926;-75
2022/10/12 07:43:42;;;;;;;;;;;21.60;99.90;;;;;;5016670;28;20012;-75
2022/10/12 07:46:09;;;;;;;;;;;21.60;99.90;;;;;;5016299;28;19972;-75
2022/10/12 07:48:36;;;;;;;;;;;21.60;99.90;;;;;;5016260;28;20049;-75
2022/10/12 07:51:04;;;;;;;;;;;21.60;99.90;;;;;;5016441;28;19925;-75
2022/10/12 07:53:30;;;;;;;;;;;21.60;99.90;;;;;;5016167;28;20308;-75
2022/10/12 07:56:01;;;;;;;;;;;21.60;99.90;;;;;;5016436;28;19964;-75
2022/10/12 07:58:28;;;;;;;;;;;21.60;99.90;;;;;;5016149;28;20377;-75
2022/10/12 08:00:54;;;;;;;;;;;21.60;99.90;;;;;;5016184;28;20361;-75
2022/10/12 08:03:21;;;;;;;;;;;21.60;99.90;;;;;;5015939;28;20012;-75
2022/10/12 08:05:47;;;;;;;;;;;21.60;99.90;;;;;;5016221;28;20020;-75
2022/10/12 08:08:14;;;;;;;;;;;21.60;99.90;;;;;;5015878;28;20019;-75
2022/10/12 08:10:41;;;;;;;;;;;21.60;99.90;;;;;;5015765;28;20015;-75
2022/10/12 08:13:09;;;;;;;;;;;21.60;99.90;;;;;;5015769;28;20371;-75
2022/10/12 08:15:35;;;;;;;;;;;21.60;99.90;;;;;;5015093;28;20020;-75
2022/10/12 08:18:02;;;;;;;;;;;21.60;99.90;;;;;;5016057;28;20012;-75
2022/10/12 08:20:29;;;;;;;;;;;21.60;99.90;;;;;;5015821;28;20008;-75
2022/10/12 08:22:55;;;;;;;;;;;21.60;99.90;;;;;;5015981;28;20019;-75
2022/10/12 08:25:22;;;;;;;;;;;21.60;99.90;;;;;;5015892;28;20020;-75
2022/10/12 08:27:49;;;;;;;;;;;21.60;99.90;;;;;;5015857;28;20012;-75
2022/10/12 08:30:17;;;;;;;;;;;21.60;99.90;;;;;;5015422;28;20008;-75
2022/10/12 08:32:43;;;;;;;;;;;21.60;99.90;;;;;;5015439;28;20004;-75
2022/10/12 08:35:10;;;;;;;;;;;21.60;99.90;;;;;;5015699;28;20015;-75
2022/10/12 08:37:37;;;;;;;;;;;21.60;99.90;;;;;;5015619;28;20012;-75
2022/10/12 08:40:04;;;;;;;;;;;21.60;99.90;;;;;;5015586;28;19969;-75
2022/10/12 08:42:35;;;;;;;;;;;21.60;99.90;;;;;;5015500;28;19948;-75
2022/10/12 08:45:12;;;;;;;;;;;21.60;99.90;;;;;;5015564;28;19926;-75
2022/10/12 08:47:42;;;;;;;;;;;21.60;99.90;;;;;;5015214;28;19935;-75
2022/10/12 08:50:14;;;;;;;;;;;21.60;99.90;;;;;;5015043;28;20300;-75
2022/10/12 08:52:43;;;;;;;;;;;21.60;99.90;;;;;;5015419;28;20032;-75
2022/10/12 08:55:16;;;;;;;;;;;21.60;99.90;;;;;;5015009;28;20353;-75
2022/10/12 08:57:43;;;;;;;;;;;21.60;99.90;;;;;;5015335;28;20020;-75
2022/10/12 09:00:12;;;;;;;;;;;21.60;99.90;;;;;;5015176;28;20023;-75
2022/10/12 09:02:49;;;;;;;;;;;21.60;99.90;;;;;;5015136;28;19929;-75
2022/10/12 09:05:19;;;;;;;;;;;21.60;99.90;;;;;;5015189;28;20029;-75
2022/10/12 09:07:46;;;;;;;;;;;21.60;99.90;;;;;;5015143;28;20062;-75
2022/10/12 09:10:22;;;;;;;;;;;21.60;99.90;;;;;;5015000;28;19936;-75
2022/10/12 09:12:54;;;;;;;;;;;21.60;99.90;;;;;;5014762;28;19926;-75
2022/10/12 09:15:22;;;;;;;;;;;21.60;99.90;;;;;;5015041;28;19963;-75
2022/10/12 09:17:52;;;;;;;;;;;21.60;99.90;;;;;;5014636;28;19931;-75
2022/10/12 09:20:20;;;;;;;;;;;21.50;99.90;;;;;;5014850;28;20024;-75
2022/10/12 09:22:48;;;;;;;;;;;21.60;99.90;;;;;;5014790;28;19932;-75
2022/10/12 09:25:16;;;;;;;;;;;21.60;99.90;;;;;;5014805;28;20011;-75
2022/10/12 09:27:44;;;;;;;;;;;21.50;99.90;;;;;;5014254;28;20298;-75
2022/10/12 09:30:13;;;;;;;;;;;21.50;99.90;;;;;;5014685;28;20023;-75
2022/10/12 09:32:49;;;;;;;;;;;21.60;99.90;;;;;;5014402;28;19975;-75
2022/10/12 09:35:17;;;;;;;;;;;21.60;99.90;;;;;;5014395;28;20452;-75
2022/10/12 09:37:45;;;;;;;;;;;21.60;99.90;;;;;;5014652;28;20359;-75
2022/10/12 09:40:16;;;;;;;;;;;21.50;99.90;;;;;;5014500;28;20020;-74
2022/10/12 09:42:44;;;;;;;;;;;21.60;99.90;;;;;;5014540;28;20020;-74
2022/10/12 09:45:14;;;;;;;;;;;21.60;99.90;;;;;;5014199;28;20025;-74
2022/10/12 09:47:41;;;;;;;;;;;21.60;99.90;;;;;;5014473;28;20020;-74
2022/10/12 09:50:08;;;;;;;;;;;21.50;99.90;;;;;;5014411;28;19965;-74
2022/10/12 09:52:42;;;;;;;;;;;21.60;99.90;;;;;;5014405;28;19931;-74
2022/10/12 09:55:22;;;;;;;;;;;21.60;99.90;;;;;;5014424;28;20032;-74
2022/10/12 09:57:52;;;;;;;;;;;21.60;99.90;;;;;;5014399;28;20016;-74
2022/10/12 10:00:23;;;;;;;;;;;21.60;99.90;;;;;;5014243;28;19947;-74
2022/10/12 10:02:51;;;;;;;;;;;21.60;99.90;;;;;;5014196;28;19971;-75
2022/10/12 10:05:23;;;;;;;;;;;21.60;99.90;;;;;;5014256;28;20019;-75
2022/10/12 10:07:51;;;;;;;;;;;21.60;99.90;;;;;;5014319;28;20020;-75
2022/10/12 10:10:20;;;;;;;;;;;21.60;99.90;;;;;;5014162;28;20008;-75
2022/10/12 10:12:51;;;;;;;;;;;21.60;99.90;;;;;;5013933;28;19932;-75
2022/10/12 10:15:22;;;;;;;;;;;21.60;99.90;;;;;;5014206;28;20367;-75
2022/10/12 10:17:52;;;;;;;;;;;21.60;99.90;;;;;;5013931;28;19932;-75
2022/10/12 10:20:28;;;;;;;;;;;21.60;99.90;;;;;;5014101;28;19971;-75
2022/10/12 10:22:56;;;;;;;;;;;21.60;99.90;;;;;;5014030;28;20024;-75
2022/10/12 10:25:24;;;;;;;;;;;21.60;99.90;;;;;;5014096;28;20029;-75
2022/10/12 10:27:51;;;;;;;;;;;21.60;99.90;;;;;;5014095;28;19968;-75
2022/10/12 10:30:22;;;;;;;;;;;21.60;99.90;;;;;;5014135;28;19969;-75
2022/10/12 10:32:49;;;;;;;;;;;21.60;99.90;;;;;;5014598;28;19926;-75
2022/10/12 10:35:20;;;;;;;;;;;21.60;99.90;;;;;;5014115;28;20440;-75
2022/10/12 10:37:48;;;;;;;;;;;21.60;99.90;;;;;;5013491;28;20021;-76
2022/10/12 10:40:20;;;;;;;;;;;21.50;99.90;;;;;;5016673;28;20401;-76
2022/10/12 10:42:49;;;;;;;;;;;21.60;99.90;;;;;;5017872;28;20012;-76
2022/10/12 10:45:22;;;;;;;;;;;21.60;99.90;;;;;;5017836;28;20020;-75
2022/10/12 10:47:49;;;;;;;;;;;21.60;99.90;;;;;;5056509;23;20029;-74
2022/10/12 10:50:23;;;;;;;;;;;21.60;99.90;;;;;;5017643;28;20015;-75
2022/10/12 10:52:54;;;;;;;;;;;21.60;99.90;;;;;;5017609;28;19933;-75
2022/10/12 10:55:23;;;;;;;;;;;21.60;99.90;;;;;;5017572;28;19987;-75
2022/10/12 10:57:55;;;;;;;;;;;21.60;99.90;;;;;;5017616;28;19981;-74
2022/10/12 11:00:22;;;;;;;;;;;21.60;99.90;;;;;;5017569;28;19975;-74
2022/10/12 11:02:52;;;;;;;;;;;21.60;99.90;;;;;;5017340;28;20023;-74
2022/10/12 11:05:20;;;;;;;;;;;21.60;99.90;;;;;;5017044;28;20336;-74
2022/10/12 11:07:48;;;;;;;;;;;21.60;99.90;;;;;;5017267;28;19972;-74
2022/10/12 11:10:20;;;;;;;;;;;21.60;99.90;;;;;;5016910;28;20364;-75
2022/10/12 11:12:51;;;;;;;;;;;21.60;99.90;;;;;;5017296;28;20013;-76
2022/10/12 11:15:20;;;;;;;;;;;21.60;99.90;;;;;;5017442;28;20020;-77
2022/10/12 11:17:48;;;;;;;;;;;21.70;99.90;;;;;;5017051;28;19988;-76
2022/10/12 11:20:30;;;;;;;;;;;21.70;99.90;;;;;;5016824;28;20012;-76
2022/10/12 11:23:00;;;;;;;;;;;21.70;99.90;;;;;;5017990;28;19926;-76
2022/10/12 11:25:29;;;;;;;;;;;21.70;99.90;;;;;;5017075;28;20008;-76
2022/10/12 11:27:57;;;;;;;;;;;21.70;99.90;;;;;;5016925;28;20013;-77
2022/10/12 11:30:25;;;;;;;;;;;21.70;99.90;;;;;;5016627;28;20341;-76
2022/10/12 11:32:54;;;;;;;;;;;21.70;99.90;;;;;;5016784;28;20016;-77
2022/10/12 11:35:25;;;;;;;;;;;21.70;99.90;;;;;;5016889;28;20025;-76
2022/10/12 11:37:55;;;;;;;;;;;21.70;99.90;;;;;;5016777;28;19979;-76
2022/10/12 11:40:25;;;;;;;;;;;21.70;99.90;;;;;;5017024;28;20373;-76
2022/10/12 11:42:53;;;;;;;;;;;21.70;99.90;;;;;;5016349;28;19925;-74
2022/10/12 11:45:23;;;;;;;;;;;21.70;99.90;;;;;;5016682;28;20008;-75
2022/10/12 11:47:52;;;;;;;;;;;21.70;99.90;;;;;;5016236;28;20004;-75
2022/10/12 11:50:23;;;;;;;;;;;21.70;99.90;;;;;;5016154;28;19988;-74
2022/10/12 11:52:51;;;;;;;;;;;21.70;99.90;;;;;;5016606;28;20024;-75
2022/10/12 11:55:27;;;;;;;;;;;21.70;99.90;;;;;;5016400;28;19925;-74
2022/10/12 11:57:55;;;;;;;;;;;21.80;99.90;;;;;;5016650;28;19925;-74
2022/10/12 12:00:24;;;;;;;;;;;21.80;99.90;;;;;;5016866;28;20274;-75
2022/10/12 12:02:54;;;;;;;;;;;21.70;99.90;;;;;;5018658;28;20020;-75
2022/10/12 12:05:21;;;;;;;;;;;21.80;99.90;;;;;;5016298;28;19925;-75
2022/10/12 12:07:48;;;;;;;;;;;21.80;99.90;;;;;;5015877;28;20020;-75
2022/10/12 12:10:34;;;;;;;;;;;21.80;99.90;;;;;;5015887;28;20480;-75
2022/10/12 12:13:18;;;;;;;;;;;21.80;99.90;;;;;;5015835;28;19925;-75
2022/10/12 12:15:59;;;;;;;;;;;21.80;99.90;;;;;;5015824;28;20365;-75
2022/10/12 12:18:28;;;;;;;;;;;21.90;99.90;;;;;;5015345;28;20343;-75
2022/10/12 12:21:05;;;;;;;;;;;21.90;99.90;;;;;;5016071;28;20012;-75
2022/10/12 12:23:36;;;;;;;;;;;21.90;99.90;;;;;;5015689;28;20448;-75
2022/10/12 12:26:12;;;;;;;;;;;21.90;99.90;;;;;;5016283;28;19979;-75
2022/10/12 12:28:40;;;;;;;;;;;22.00;99.90;;;;;;5015776;28;20024;-75
2022/10/12 12:31:10;;;;;;;;;;;22.00;99.90;;;;;;5016283;28;20012;-75
2022/10/12 12:33:40;;;;;;;;;;;22.00;99.90;;;;;;5015410;28;20020;-74
2022/10/12 12:36:08;;;;;;;;;;;22.00;99.90;;;;;;5015871;28;20292;-74
2022/10/12 12:38:35;;;;;;;;;;;22.00;99.90;;;;;;5015552;28;19968;-75
2022/10/12 12:41:07;;;;;;;;;;;22.00;99.90;;;;;;5015369;28;20024;-75
2022/10/12 12:44:01;;;;;;;;;;;22.00;99.90;;;;;;5015472;28;20024;-74
2022/10/12 12:46:47;;;;;;;;;;;22.00;99.90;;;;;;5015382;28;19968;-74
2022/10/12 12:49:27;;;;;;;;;;;22.00;99.90;;;;;;5015119;28;20385;-74
2022/10/12 12:51:56;;;;;;;;;;;22.00;99.90;;;;;;5015486;28;20044;-74
2022/10/12 12:54:23;;;;;;;;;;;22.00;99.90;;;;;;5015456;28;19925;-74
2022/10/12 12:57:08;;;;;;;;;;;22.00;99.90;;;;;;5015319;28;20024;-74
2022/10/12 12:59:46;;;;;;;;;;;22.10;99.90;;;;;;5014880;28;20024;-74
2022/10/12 13:02:26;;;;;;;;;;;22.00;99.90;;;;;;5015215;28;19965;-77
2022/10/12 13:05:08;;;;;;;;;;;22.00;99.90;;;;;;5017783;28;19965;-78
2022/10/12 13:07:52;;;;;;;;;;;22.10;99.90;;;;;;5018745;28;19925;-78
2022/10/12 13:10:24;;;;;;;;;;;22.00;99.90;;;;;;5018207;28;19925;-78
2022/10/12 13:13:06;;;;;;;;;;;22.00;99.90;;;;;;5018658;28;19984;-78
2022/10/12 13:15:38;;;;;;;;;;;22.00;99.90;;;;;;5019548;28;19976;-78
2022/10/12 13:18:11;;;;;;;;;;;22.00;99.90;;;;;;5018782;28;20385;-78
2022/10/12 13:20:40;;;;;;;;;;;22.00;99.90;;;;;;5018565;28;19976;-78
2022/10/12 13:23:08;;;;;;;;;;;22.00;99.90;;;;;;5019331;28;19996;-78
2022/10/12 13:25:37;;;;;;;;;;;22.10;99.90;;;;;;5019643;28;19993;-78
2022/10/12 13:28:06;;;;;;;;;;;22.00;99.90;;;;;;5019515;28;20016;-78
2022/10/12 13:30:34;;;;;;;;;;;22.00;99.90;;;;;;5017361;28;20360;-78
2022/10/12 13:33:03;;;;;;;;;;;22.10;99.90;;;;;;5018583;28;19925;-78
2022/10/12 13:35:33;;;;;;;;;;;22.10;99.90;;;;;;5018132;28;20357;-78
2022/10/12 13:38:02;;;;;;;;;;;22.00;99.90;;;;;;5018247;28;20012;-78
2022/10/12 13:40:30;;;;;;;;;;;22.10;99.90;;;;;;5016996;28;19929;-78
2022/10/12 13:42:57;;;;;;;;;;;22.00;99.90;;;;;;5016672;28;20009;-78
2022/10/12 13:45:24;;;;;;;;;;;22.10;99.90;;;;;;5016888;28;19925;-77
2022/10/12 13:47:50;;;;;;;;;;;22.10;99.90;;;;;;5016301;28;20020;-78
2022/10/12 13:50:18;;;;;;;;;;;22.10;99.90;;;;;;5016883;28;20016;-78
2022/10/12 13:52:51;;;;;;;;;;;22.00;99.90;;;;;;5016772;28;20024;-77
2022/10/12 13:55:24;;;;;;;;;;;22.10;99.90;;;;;;5016613;28;19989;-78
2022/10/12 13:57:50;;;;;;;;;;;22.00;99.90;;;;;;5016541;28;20016;-78
2022/10/12 14:00:19;;;;;;;;;;;22.00;99.90;;;;;;5016032;28;20393;-77
2022/10/12 14:02:54;;;;;;;;;;;22.00;99.90;;;;;;5016350;28;19997;-78
2022/10/12 14:05:22;;;;;;;;;;;22.00;99.90;;;;;;5017052;28;19953;-78
2022/10/12 14:07:51;;;;;;;;;;;22.00;99.90;;;;;;5016806;28;20357;-78
2022/10/12 14:10:19;;;;;;;;;;;22.00;99.90;;;;;;5016566;28;20008;-77
2022/10/12 14:12:49;;;;;;;;;;;22.00;99.90;;;;;;5016062;28;19933;-78
2022/10/12 14:15:16;;;;;;;;;;;22.00;99.90;;;;;;5020119;28;20017;-77
2022/10/12 14:17:44;;;;;;;;;;;22.00;99.90;;;;;;5020476;28;20000;-78
2022/10/12 14:20:15;;;;;;;;;;;22.00;99.90;;;;;;5021119;28;20396;-78
2022/10/12 14:22:46;;;;;;;;;;;22.00;99.90;;;;;;5022493;28;19926;-77
2022/10/12 14:25:16;;;;;;;;;;;22.00;99.90;;;;;;5023282;28;19926;-78
2022/10/12 14:27:43;;;;;;;;;;;22.00;99.90;;;;;;5023845;28;19932;-78
2022/10/12 14:30:17;;;;;;;;;;;22.00;99.90;;;;;;5024090;28;19933;-78
2022/10/12 14:32:45;;;;;;;;;;;22.00;99.90;;;;;;5024251;28;19968;-78
2022/10/12 14:35:30;;;;;;;;;;;22.00;99.90;;;;;;5021375;28;19925;-78
2022/10/12 14:37:57;;;;;;;;;;;22.00;99.90;;;;;;5022209;28;20339;-78
2022/10/12 14:40:37;;;;;;;;;;;22.00;99.90;;;;;;5023549;28;19929;-78
2022/10/12 14:43:06;;;;;;;;;;;22.00;99.90;;;;;;5023964;28;20392;-78
2022/10/12 14:45:34;;;;;;;;;;;22.00;99.90;;;;;;5023384;28;19932;-78
2022/10/12 14:48:03;;;;;;;;;;;22.00;99.90;;;;;;5023099;28;19926;-78
2022/10/12 14:50:31;;;;;;;;;;;22.00;99.90;;;;;;5024064;28;20381;-78
2022/10/12 14:53:00;;;;;;;;;;;21.90;99.90;;;;;;5023689;28;19933;-78
2022/10/12 14:55:30;;;;;;;;;;;22.00;99.90;;;;;;5024062;28;19930;-80
2022/10/12 14:57:57;;;;;;;;;;;22.00;99.90;;;;;;5023146;28;20339;-76
2022/10/12 15:00:25;;;;;;;;;;;22.00;99.90;;;;;;5022729;28;19929;-76
2022/10/12 15:02:52;;;;;;;;;;;21.90;99.90;;;;;;5022884;28;19981;-76
2022/10/12 15:05:21;;;;;;;;;;;22.00;99.80;;;;;;5023386;28;19925;-75
2022/10/12 15:07:49;;;;;;;;;;;22.00;99.80;;;;;;5021704;28;19925;-76
2022/10/12 15:10:17;;;;;;;;;;;21.90;99.80;;;;;;5022729;28;20324;-75
2022/10/12 15:12:44;;;;;;;;;;;21.90;99.70;;;;;;5021370;28;19925;-75
2022/10/12 15:15:17;;;;;;;;;;;21.90;99.70;;;;;;5021852;28;20421;-75
2022/10/12 15:17:44;;;;;;;;;;;21.90;99.70;;;;;;5022229;28;19929;-75
2022/10/12 15:20:11;;;;;;;;;;;21.90;99.70;;;;;;5021649;28;20435;-75
2022/10/12 15:22:39;;;;;;;;;;;21.90;99.60;;;;;;5018803;28;19972;-75
2022/10/12 15:25:15;;;;;;;;;;;21.90;99.60;;;;;;5016421;28;20400;-75
2022/10/12 15:27:49;;;;;;;;;;;21.90;99.60;;;;;;5016673;28;19933;-76
2022/10/12 15:30:17;;;;;;;;;;;21.80;99.50;;;;;;5016632;28;20472;-75
2022/10/12 15:32:44;;;;;;;;;;;21.80;99.50;;;;;;5016612;28;19925;-77
2022/10/12 15:35:16;;;;;;;;;;;21.90;99.50;;;;;;5017104;28;19932;-77
2022/10/12 15:37:44;;;;;;;;;;;21.90;99.50;;;;;;5016764;28;19925;-77
2022/10/12 15:40:12;;;;;;;;;;;21.80;99.40;;;;;;5016448;28;19941;-76
2022/10/12 15:42:41;;;;;;;;;;;21.80;99.40;;;;;;5016407;28;20300;-76
2022/10/12 15:45:18;;;;;;;;;;;21.80;99.40;;;;;;5016513;28;19979;-76
2022/10/12 15:47:45;;;;;;;;;;;21.80;99.40;;;;;;5016303;28;19926;-76
2022/10/12 15:50:12;;;;;;;;;;;21.80;99.30;;;;;;5016768;28;19979;-80
2022/10/12 15:52:39;;;;;;;;;;;21.80;99.30;;;;;;5020896;28;19980;-78
2022/10/12 15:55:11;;;;;;;;;;;21.80;99.30;;;;;;5016190;28;19925;-77
2022/10/12 15:57:38;;;;;;;;;;;21.80;99.30;;;;;;5016403;28;19976;-78
2022/10/12 16:00:05;;;;;;;;;;;21.80;99.30;;;;;;5016079;28;20393;-77
2022/10/12 16:02:32;;;;;;;;;;;21.80;99.30;;;;;;5016955;28;19977;-77
2022/10/12 16:04:59;;;;;;;;;;;21.80;99.30;;;;;;5016230;28;19925;-77
2022/10/12 16:07:26;;;;;;;;;;;21.80;99.30;;;;;;5016230;28;20024;-77
2022/10/12 16:09:52;;;;;;;;;;;21.80;99.30;;;;;;5017008;28;19972;-78
2022/10/12 16:12:20;;;;;;;;;;;21.80;99.30;;;;;;5016209;28;20009;-78
2022/10/12 16:14:47;;;;;;;;;;;21.80;99.40;;;;;;5016118;28;20317;-78
2022/10/12 16:17:14;;;;;;;;;;;21.80;99.40;;;;;;5016313;28;19991;-79
2022/10/12 16:19:40;;;;;;;;;;;21.80;99.60;;;;;;5016654;28;20020;-78
2022/10/12 16:22:08;;;;;;;;;;;21.80;99.90;;;;;;5016974;28;20013;-77
2022/10/12 16:24:35;;;;;;;;;;;21.80;99.60;;;;;;5020377;28;19925;-78
2022/10/12 16:27:02;;;;;;;;;;;21.80;99.60;;;;;;5015886;28;20368;-78
2022/10/12 16:29:30;;;;;;;;;;;21.80;99.80;;;;;;5018130;28;19973;-77
2022/10/12 16:31:56;;;;;;;;;;;21.80;99.90;;;;;;5018783;28;20016;-77
2022/10/12 16:34:23;;;;;;;;;;;21.80;99.90;;;;;;5016418;28;20420;-77
2022/10/12 16:36:52;;;;;;;;;;;21.80;99.90;;;;;;5015572;28;20012;-77
2022/10/12 16:39:18;;;;;;;;;;;21.80;99.90;;;;;;5016408;28;20349;-77
2022/10/12 16:41:45;;;;;;;;;;;21.80;99.90;;;;;;5016832;28;20011;-76
2022/10/12 16:44:12;;;;;;;;;;;21.80;99.90;;;;;;5016708;28;20020;-77
2022/10/12 16:46:40;;;;;;;;;;;21.80;99.90;;;;;;5017995;28;20349;-77
2022/10/12 16:49:07;;;;;;;;;;;21.80;99.90;;;;;;5017141;28;19972;-77
2022/10/12 16:51:33;;;;;;;;;;;21.80;99.90;;;;;;5019659;28;19925;-77
2022/10/12 16:54:01;;;;;;;;;;;21.80;99.90;;;;;;5023148;28;19961;-79
2022/10/12 16:56:28;;;;;;;;;;;21.80;99.90;;;;;;5023298;28;20349;-79
2022/10/12 16:58:54;;;;;;;;;;;21.80;99.90;;;;;;5023791;28;20292;-79
2022/10/12 17:01:21;;;;;;;;;;;21.80;99.90;;;;;;5019981;28;20023;-78
2022/10/12 17:03:49;;;;;;;;;;;21.80;99.90;;;;;;5018246;28;19971;-79
2022/10/12 17:06:16;;;;;;;;;;;21.80;99.90;;;;;;5018694;28;19988;-78
2022/10/12 17:08:42;;;;;;;;;;;21.70;99.80;;;;;;5017736;28;20013;-77
2022/10/12 17:11:10;;;;;;;;;;;21.70;99.90;;;;;;5017286;28;19983;-77
2022/10/12 17:13:37;;;;;;;;;;;21.70;99.90;;;;;;5016120;28;19948;-77
2022/10/12 17:16:48;;;;;;;;;;;21.80;99.90;;;;;;5019570;28;19965;-79
2022/10/12 17:18:53;;;;;;;;;;;21.80;99.90;;;;;;5021876;28;19933;-80
2022/10/12 17:21:20;;;;;;;;;;;21.80;99.90;;;;;;5025603;28;19932;-83
2022/10/12 17:23:46;;;;;;;;;;;21.80;99.90;;;;;;5034844;28;19926;-84
2022/10/12 17:26:15;;;;;;;;;;;21.80;99.90;;;;;;5028893;28;21591;-83
2022/10/12 17:28:42;;;;;;;;;;;21.80;99.90;;;;;;5023097;28;20369;-82
2022/10/12 17:31:09;;;;;;;;;;;21.80;99.90;;;;;;5019487;28;19965;-82
2022/10/12 17:33:35;;;;;;;;;;;21.80;99.90;;;;;;5018645;28;19965;-82
2022/10/12 17:36:06;;;;;;;;;;;21.90;99.90;;;;;;5022486;28;20444;-80
2022/10/12 17:38:34;;;;;;;;;;;21.90;99.90;;;;;;5020505;28;19933;-82
2022/10/12 17:41:01;;;;;;;;;;;21.90;99.90;;;;;;5019726;28;19926;-78
2022/10/12 17:43:28;;;;;;;;;;;21.80;99.90;;;;;;5019215;28;19925;-77
2022/10/12 17:45:55;;;;;;;;;;;21.90;99.90;;;;;;5019859;28;19976;-78
2022/10/12 17:48:21;;;;;;;;;;;21.90;99.90;;;;;;5019805;28;19993;-81
2022/10/12 17:50:49;;;;;;;;;;;21.90;99.90;;;;;;5020078;28;20456;-82
2022/10/12 17:53:17;;;;;;;;;;;21.90;99.90;;;;;;5019916;28;20012;-77
2022/10/12 17:55:44;;;;;;;;;;;21.90;99.90;;;;;;5015806;28;19972;-78
2022/10/12 17:58:11;;;;;;;;;;;21.90;99.90;;;;;;5017630;28;19965;-78
2022/10/12 18:00:37;;;;;;;;;;;21.90;99.90;;;;;;5017076;28;19995;-81
2022/10/12 18:03:04;;;;;;;;;;;21.90;99.90;;;;;;5019430;28;19949;-77
2022/10/12 18:05:31;;;;;;;;;;;21.90;99.90;;;;;;5016242;28;20013;-81
2022/10/12 18:07:58;;;;;;;;;;;21.90;99.90;;;;;;5019398;28;19932;-77
2022/10/12 18:10:26;;;;;;;;;;;21.90;99.90;;;;;;5020397;28;19925;-78
2022/10/12 18:12:53;;;;;;;;;;;21.90;99.90;;;;;;5015021;28;19995;-77
2022/10/12 18:15:21;;;;;;;;;;;22.00;99.90;;;;;;5015005;28;19975;-77
2022/10/12 18:17:48;;;;;;;;;;;21.90;99.90;;;;;;5014901;28;19925;-78
2022/10/12 18:20:17;;;;;;;;;;;22.00;99.90;;;;;;5017442;28;19926;-80
2022/10/12 18:22:43;;;;;;;;;;;21.90;99.90;;;;;;5017565;28;19932;-78
2022/10/12 18:25:10;;;;;;;;;;;22.00;99.90;;;;;;5014105;28;19929;-78
2022/10/12 18:27:38;;;;;;;;;;;22.00;99.90;;;;;;5015111;28;19929;-78
2022/10/12 18:30:05;;;;;;;;;;;22.00;99.90;;;;;;5019137;28;19933;-79
2022/10/12 18:32:32;;;;;;;;;;;22.00;99.90;;;;;;5023429;28;19926;-79
2022/10/12 18:34:59;;;;;;;;;;;22.00;99.90;;;;;;5021216;28;19925;-79
2022/10/12 18:37:26;;;;;;;;;;;22.00;99.90;;;;;;5022798;28;19973;-79
2022/10/12 18:39:53;;;;;;;;;;;21.90;99.90;;;;;;5022862;28;19926;-79
2022/10/12 18:42:19;;;;;;;;;;;21.90;99.90;;;;;;5015014;28;19941;-76
2022/10/12 18:44:47;;;;;;;;;;;21.90;99.90;;;;;;5013850;28;20012;-77
2022/10/12 18:47:14;;;;;;;;;;;21.90;99.90;;;;;;5013557;28;20037;-76
2022/10/12 18:49:41;;;;;;;;;;;21.90;99.90;;;;;;5013852;28;19972;-77
2022/10/12 18:52:08;;;;;;;;;;;21.90;99.90;;;;;;5013856;28;19992;-77
2022/10/12 18:54:34;;;;;;;;;;;21.90;99.90;;;;;;5013768;28;19972;-76